Bobcat — WDB5142 — position and weather

sailwx.info

Track history (hours):
 
Tides and Currents Weather Stations Pressure Air Temp Water Temp Dewpoint Dewpoint Depression Visibility Wind Speed Wind Dir Waves Ship Positions

Bobcat

Owner: TAURUS MARINE, SAN FRANCISCO, CA. More information available from US FCC via Universal Licensing System and Coast Guard Vessel Documentation Center.

Last reported at 2018-Jan-19 23:34 UTC. Time now 2018-Jan-23 02:13 UTC.
Position N 38°05' W 122°15'.

; draft 2 m.

Type: Towing. MMSI: 366906360.

Date/timePositionNaut miles runAvg speedWind from/ knotsBaromVisibWave heightAir tempDewpointWater temp
2018-Jan-19 23:34N 38°05' W 122°15'0 6.5
2018-Jan-19 23:30N 38°05' W 122°15'3 5.0
2018-Jan-19 22:55N 38°03' W 122°12'4 2.3
2018-Jan-19 21:22N 38°02' W 122°08'0 0.0
2018-Jan-19 20:40N 38°02' W 122°08'0 1.5
2018-Jan-19 20:22N 38°02' W 122°08'3 7.4
2018-Jan-19 20:00N 38°03' W 122°11'3 6.9
2018-Jan-19 19:30N 38°05' W 122°15'0 0.0
2018-Jan-19 01:38N 38°05' W 122°15'1 5.8
2018-Jan-19 01:30N 38°05' W 122°15'5 8.6
2018-Jan-19 00:52N 38°02' W 122°09'0 0.1
2018-Jan-18 21:58N 38°02' W 122°09'510.4
2018-Jan-18 21:30N 38°04' W 122°14'2 0.8
2018-Jan-18 19:19N 38°05' W 122°15'0 0.1
2018-Jan-18 18:56N 38°05' W 122°16'1 0.8
2018-Jan-18 18:04N 38°05' W 122°15'110.6
2018-Jan-18 18:00N 38°04' W 122°15'5 1.6
2018-Jan-18 14:39N 38°02' W 122°09'1 4.5
2018-Jan-18 14:21N 38°03' W 122°10'2 5.4
2018-Jan-18 14:00N 38°04' W 122°12'  
Track history (hours):
 
Tides and Currents Weather Stations Pressure Air Temp Water Temp Dewpoint Dewpoint Depression Visibility Wind Speed Wind Dir Waves Ship Positions

Bobcat

Owner: TAURUS MARINE, SAN FRANCISCO, CA. More information available from US FCC via Universal Licensing System and Coast Guard Vessel Documentation Center.

Last reported at 2018-Jan-19 23:34 UTC. Time now 2018-Jan-23 02:13 UTC.
Position N 38°05' W 122°15'.

; draft 2 m.

Type: Towing. MMSI: 366906360.

Date/timePositionNaut miles runAvg speedWind from/ knotsBaromVisibWave heightAir tempDewpointWater temp
2018-Jan-19 23:34N 38°05' W 122°15'0 6.5
2018-Jan-19 23:30N 38°05' W 122°15'3 5.0
2018-Jan-19 22:55N 38°03' W 122°12'4 2.3
2018-Jan-19 21:22N 38°02' W 122°08'0 0.0
2018-Jan-19 20:40N 38°02' W 122°08'0 1.5
2018-Jan-19 20:22N 38°02' W 122°08'3 7.4
2018-Jan-19 20:00N 38°03' W 122°11'3 6.9
2018-Jan-19 19:30N 38°05' W 122°15'0 0.0
2018-Jan-19 01:38N 38°05' W 122°15'1 5.8
2018-Jan-19 01:30N 38°05' W 122°15'5 8.6
2018-Jan-19 00:52N 38°02' W 122°09'0 0.1
2018-Jan-18 21:58N 38°02' W 122°09'510.4
2018-Jan-18 21:30N 38°04' W 122°14'2 0.8
2018-Jan-18 19:19N 38°05' W 122°15'0 0.1
2018-Jan-18 18:56N 38°05' W 122°16'1 0.8
2018-Jan-18 18:04N 38°05' W 122°15'110.6
2018-Jan-18 18:00N 38°04' W 122°15'5 1.6
2018-Jan-18 14:39N 38°02' W 122°09'1 4.5
2018-Jan-18 14:21N 38°03' W 122°10'2 5.4
2018-Jan-18 14:00N 38°04' W 122°12'  

Dump ship's entire track history